Archival Weather

Snohomish County (Paine Fld)

Everett, Washington (KPAE)

Report from: Tuesday, May 21, 2024 5:53 AM PDT
Current time: Saturday, June 22, 2024 3:38 AM PDT

Current weather – Weather history – Daily summaries
Weather forecast

Temperature9.4°C (48.9°F)
Wind chill7.2°C (45.0°F)
Dew point5.6°C (42.1°F)
Winds 8 kts (4.1 m/s, 9.2 mph) South (170°)
Visibility10 mi. (16.1 km)
Clouds Ceiling: Overcast 6,000 ft. (1,829 m)
Altimeter30.14 in.Hg (1021 mB)
Relative humidity77 %
Density altitude-790 ft. (-241 m)
Sea-level pressure102.1 kPa (1021 mB, 30.14 in.Hg)
Remarks Fully automated report
Automated weather observing station with precipitation discriminator
Flight conditions Visual Meteorological Conditions
Raw dataKPAE 211253Z AUTO 17008KT 10SM OVC060 09/06 A3014 RMK AO2 SLP207 T00940056
An error has occurred. This application may no longer respond until reloaded. Reload 🗙